»·PEaware :: N516RP KSBA-KBUR

N516RP :: KSBA-KBUR

FLIGHT INFORMATION

Flight Status: Arrived
Operator: Privately registered:
United States
More flights under this callsign
Pilot: Paul P. (32265)
Aircraft: CESSNA 172 SKYHAWK
(C172)
More flights by this aircraft type
Origin: KSBA Santa Barbara Mun
United States
Destination: KBUR Bob Hope-Burbank
United States
More flights between these airports :: More routes between these airports
Route: +KSBA KBUR
File this flight plan on PilotEdge
Remarks:
Altitude:
(Current/Filed)
7,500ft
Speed:
(Current/Filed)
0kts
Departed: 18-Nov-20 09:10 PM
Arrived: 18-Nov-20 09:52 PM
Distance/Time
Traveled:
75nm/0:41
Distance/Time
To Go:
Arrived

Flight Plot

Page will automatically refresh every two minutes.

Flight plan parsing failed; only flown route is shown


Map Options




Map Legend


Flown Route
Filed Route
Departure Airport
Arrival Airport
Navaid (VOR, NDB)
Fix

Horizontal Profiles

Position Reports

Time Latitude Longitude Heading Altitude Ground
Speed
18-Nov-20 20:51 34.429178 -119.844772 334 15ft 0kts
18-Nov-20 20:52 34.429178 -119.844772 334 15ft 0kts
18-Nov-20 20:53 34.429178 -119.844772 334 15ft 0kts
18-Nov-20 20:54 34.429178 -119.844772 334 15ft 0kts
18-Nov-20 20:55 34.429178 -119.844772 334 15ft 0kts
18-Nov-20 20:56 34.429178 -119.844772 334 15ft 0kts
18-Nov-20 20:57 34.429178 -119.844772 334 15ft 0kts
18-Nov-20 20:58 34.429178 -119.844772 334 15ft 0kts
18-Nov-20 20:59 34.429178 -119.844772 334 15ft 0kts
18-Nov-20 21:00 34.428968 -119.844655 109 14ft 7kts
18-Nov-20 21:01 34.429878 -119.841972 63 14ft 0kts
18-Nov-20 21:03 34.429878 -119.841972 63 14ft 0kts
18-Nov-20 21:04 34.429878 -119.841972 63 14ft 0kts
18-Nov-20 21:05 34.429878 -119.841972 63 14ft 0kts
18-Nov-20 21:06 34.429878 -119.841972 63 14ft 0kts
18-Nov-20 21:07 34.429878 -119.841972 63 14ft 0kts
18-Nov-20 21:08 34.429965 -119.841423 142 14ft 10kts
18-Nov-20 21:09 34.413243 -119.836850 168 319ft 83kts
18-Nov-20 21:10 34.389790 -119.830939 173 1089ft 87kts
18-Nov-20 21:11 34.363313 -119.826514 157 1665ft 103kts
18-Nov-20 21:12 34.354773 -119.797094 101 2612ft 65kts
18-Nov-20 21:13 34.354185 -119.775633 88 3063ft 74kts
18-Nov-20 21:14 34.356370 -119.744155 85 3458ft 107kts
18-Nov-20 21:15 34.359856 -119.707260 83 3917ft 111kts
18-Nov-20 21:16 34.364091 -119.670384 82 4403ft 109kts
18-Nov-20 21:17 34.369033 -119.634407 80 4899ft 107kts
18-Nov-20 21:18 34.374771 -119.599092 78 5399ft 106kts
18-Nov-20 21:19 34.381097 -119.566630 75 6073ft 92kts
18-Nov-20 21:20 34.388116 -119.539253 70 6707ft 82kts
18-Nov-20 21:21 34.397548 -119.511409 66 7148ft 96kts
18-Nov-20 21:22 34.409747 -119.480164 64 7468ft 112kts
18-Nov-20 21:23 34.405043 -119.442587 123 7494ft 124kts
18-Nov-20 21:24 34.386586 -119.406850 123 7495ft 125kts
18-Nov-20 21:25 34.368139 -119.371068 123 7498ft 124kts
18-Nov-20 21:26 34.349877 -119.335535 123 7496ft 123kts
18-Nov-20 21:27 34.344807 -119.294609 92 7501ft 125kts
18-Nov-20 21:28 34.343597 -119.252069 92 7501ft 126kts
18-Nov-20 21:29 34.342376 -119.209595 92 7501ft 126kts
18-Nov-20 21:30 34.341139 -119.167142 93 7497ft 126kts
18-Nov-20 21:31 34.339899 -119.124643 92 7500ft 126kts
18-Nov-20 21:32 34.334774 -119.082809 103 7499ft 125kts
18-Nov-20 21:33 34.327454 -119.041543 103 7497ft 125kts
18-Nov-20 21:34 34.320338 -119.001269 103 7502ft 126kts
18-Nov-20 21:35 34.313056 -118.959854 103 7498ft 126kts
18-Nov-20 21:36 34.309585 -118.917972 92 7500ft 126kts
18-Nov-20 21:37 34.308442 -118.875629 92 7500ft 126kts
18-Nov-20 21:38 34.306562 -118.833310 109 7499ft 125kts
18-Nov-20 21:39 34.293647 -118.794094 113 7501ft 125kts
18-Nov-20 21:40 34.280577 -118.754804 113 7397ft 132kts
18-Nov-20 21:41 34.266272 -118.711937 113 6894ft 139kts
18-Nov-20 21:42 34.251788 -118.668496 113 6381ft 138kts
18-Nov-20 21:43 34.237409 -118.625325 113 5889ft 139kts
18-Nov-20 21:44 34.227453 -118.580118 102 5259ft 144kts
18-Nov-20 21:45 34.219924 -118.536158 102 4186ft 128kts
18-Nov-20 21:46 34.212756 -118.494227 102 3182ft 123kts
18-Nov-20 21:47 34.214210 -118.452574 77 2794ft 117kts
18-Nov-20 21:48 34.222498 -118.414931 72 2668ft 115kts
18-Nov-20 21:49 34.230157 -118.376755 103 2062ft 107kts
18-Nov-20 21:50 34.210652 -118.359999 169 800ft 69kts
18-Nov-20 21:51 34.203046 -118.357783 87 729ft 6kts
18-Nov-20 21:52 34.202851 -118.358364 260 728ft 6kts
18-Nov-20 21:53 34.201304 -118.359412 177 723ft 12kts

Navigation Log

Ident Type
Flight plan parsing failed, navigation log unavailable